sensor_id;sensor_type;location;lat;lon;timestamp;temperature;humidity
22130;DHT22;11231;50.746;4.272;2023-05-03T00:00:19;9.80;99.90
22130;DHT22;11231;50.746;4.272;2023-05-03T00:02:45;9.90;99.90
22130;DHT22;11231;50.746;4.272;2023-05-03T00:05:11;9.90;99.90
22130;DHT22;11231;50.746;4.272;2023-05-03T00:07:41;9.90;99.90
22130;DHT22;11231;50.746;4.272;2023-05-03T00:10:08;9.60;99.90
22130;DHT22;11231;50.746;4.272;2023-05-03T00:12:39;9.60;99.90
22130;DHT22;11231;50.746;4.272;2023-05-03T00:15:05;9.60;99.90
22130;DHT22;11231;50.746;4.272;2023-05-03T00:17:32;9.50;99.90
22130;DHT22;11231;50.746;4.272;2023-05-03T00:19:57;9.30;99.90
22130;DHT22;11231;50.746;4.272;2023-05-03T00:22:24;9.20;99.90
22130;DHT22;11231;50.746;4.272;2023-05-03T00:24:50;9.10;99.90
22130;DHT22;11231;50.746;4.272;2023-05-03T00:27:16;9.00;99.90
22130;DHT22;11231;50.746;4.272;2023-05-03T00:29:42;8.90;99.90
22130;DHT22;11231;50.746;4.272;2023-05-03T00:32:08;8.80;99.90
22130;DHT22;11231;50.746;4.272;2023-05-03T00:34:38;8.50;99.90
22130;DHT22;11231;50.746;4.272;2023-05-03T00:37:04;8.50;99.90
22130;DHT22;11231;50.746;4.272;2023-05-03T00:39:30;8.50;99.90
22130;DHT22;11231;50.746;4.272;2023-05-03T00:41:57;8.20;99.90
22130;DHT22;11231;50.746;4.272;2023-05-03T00:44:24;8.30;99.90
22130;DHT22;11231;50.746;4.272;2023-05-03T00:46:50;8.40;99.90
22130;DHT22;11231;50.746;4.272;2023-05-03T00:49:16;8.40;99.90
22130;DHT22;11231;50.746;4.272;2023-05-03T00:51:42;8.30;99.90
22130;DHT22;11231;50.746;4.272;2023-05-03T00:54:09;8.20;99.90
22130;DHT22;11231;50.746;4.272;2023-05-03T00:56:36;8.20;99.90
22130;DHT22;11231;50.746;4.272;2023-05-03T00:59:02;8.10;99.90
22130;DHT22;11231;50.746;4.272;2023-05-03T01:01:28;8.10;99.90
22130;DHT22;11231;50.746;4.272;2023-05-03T01:03:55;8.30;99.90
22130;DHT22;11231;50.746;4.272;2023-05-03T01:09:19;8.10;99.90
22130;DHT22;11231;50.746;4.272;2023-05-03T01:17:11;7.90;99.90
22130;DHT22;11231;50.746;4.272;2023-05-03T01:19:47;7.80;99.90
22130;DHT22;11231;50.746;4.272;2023-05-03T01:22:25;7.80;99.90
22130;DHT22;11231;50.746;4.272;2023-05-03T01:25:09;7.90;99.90
22130;DHT22;11231;50.746;4.272;2023-05-03T01:27:36;7.90;99.90
22130;DHT22;11231;50.746;4.272;2023-05-03T01:30:10;8.00;99.90
22130;DHT22;11231;50.746;4.272;2023-05-03T01:35:19;8.20;99.90
22130;DHT22;11231;50.746;4.272;2023-05-03T01:37:48;8.10;99.90
22130;DHT22;11231;50.746;4.272;2023-05-03T01:40:16;8.10;99.90
22130;DHT22;11231;50.746;4.272;2023-05-03T01:42:45;7.80;99.90
22130;DHT22;11231;50.746;4.272;2023-05-03T01:45:13;7.70;99.90
22130;DHT22;11231;50.746;4.272;2023-05-03T01:47:40;7.70;99.90
22130;DHT22;11231;50.746;4.272;2023-05-03T01:50:05;8.00;99.90
22130;DHT22;11231;50.746;4.272;2023-05-03T01:52:32;8.00;99.90
22130;DHT22;11231;50.746;4.272;2023-05-03T01:54:57;7.80;99.90
22130;DHT22;11231;50.746;4.272;2023-05-03T01:57:24;7.70;99.90
22130;DHT22;11231;50.746;4.272;2023-05-03T01:59:50;7.90;99.90
22130;DHT22;11231;50.746;4.272;2023-05-03T02:02:16;8.10;99.90
22130;DHT22;11231;50.746;4.272;2023-05-03T02:04:41;8.10;99.90
22130;DHT22;11231;50.746;4.272;2023-05-03T02:07:08;8.10;99.90
22130;DHT22;11231;50.746;4.272;2023-05-03T02:09:33;8.00;99.90
22130;DHT22;11231;50.746;4.272;2023-05-03T02:11:59;7.90;99.90
22130;DHT22;11231;50.746;4.272;2023-05-03T02:14:25;7.80;99.90
22130;DHT22;11231;50.746;4.272;2023-05-03T02:16:51;7.90;99.90
22130;DHT22;11231;50.746;4.272;2023-05-03T02:19:20;7.80;99.90
22130;DHT22;11231;50.746;4.272;2023-05-03T02:21:46;7.60;99.90
22130;DHT22;11231;50.746;4.272;2023-05-03T02:24:11;7.50;99.90
22130;DHT22;11231;50.746;4.272;2023-05-03T02:26:37;7.50;99.90
22130;DHT22;11231;50.746;4.272;2023-05-03T02:29:03;7.30;99.90
22130;DHT22;11231;50.746;4.272;2023-05-03T02:31:31;7.20;99.90
22130;DHT22;11231;50.746;4.272;2023-05-03T02:33:57;7.30;99.90
22130;DHT22;11231;50.746;4.272;2023-05-03T02:36:24;7.30;99.90
22130;DHT22;11231;50.746;4.272;2023-05-03T02:38:50;7.50;99.90
22130;DHT22;11231;50.746;4.272;2023-05-03T02:41:17;7.60;99.90
22130;DHT22;11231;50.746;4.272;2023-05-03T02:43:43;7.50;99.90
22130;DHT22;11231;50.746;4.272;2023-05-03T02:46:08;7.50;99.90
22130;DHT22;11231;50.746;4.272;2023-05-03T02:48:34;7.60;99.90
22130;DHT22;11231;50.746;4.272;2023-05-03T02:51:00;7.70;99.90
22130;DHT22;11231;50.746;4.272;2023-05-03T02:53:26;7.70;99.90
22130;DHT22;11231;50.746;4.272;2023-05-03T02:55:55;7.70;99.90
22130;DHT22;11231;50.746;4.272;2023-05-03T02:58:21;7.70;99.90
22130;DHT22;11231;50.746;4.272;2023-05-03T03:00:47;7.70;99.90
22130;DHT22;11231;50.746;4.272;2023-05-03T03:03:14;7.70;99.90
22130;DHT22;11231;50.746;4.272;2023-05-03T03:05:43;7.80;99.90
22130;DHT22;11231;50.746;4.272;2023-05-03T03:08:09;7.80;99.90
22130;DHT22;11231;50.746;4.272;2023-05-03T03:10:35;7.80;99.90
22130;DHT22;11231;50.746;4.272;2023-05-03T03:13:02;7.70;99.90
22130;DHT22;11231;50.746;4.272;2023-05-03T03:15:35;7.60;99.90
22130;DHT22;11231;50.746;4.272;2023-05-03T03:18:00;7.50;99.90
22130;DHT22;11231;50.746;4.272;2023-05-03T03:20:27;7.50;99.90
22130;DHT22;11231;50.746;4.272;2023-05-03T03:22:52;7.40;99.90
22130;DHT22;11231;50.746;4.272;2023-05-03T03:25:19;7.40;99.90
22130;DHT22;11231;50.746;4.272;2023-05-03T03:27:45;7.40;99.90
22130;DHT22;11231;50.746;4.272;2023-05-03T03:30:11;7.40;99.90
22130;DHT22;11231;50.746;4.272;2023-05-03T03:32:46;7.40;99.90
22130;DHT22;11231;50.746;4.272;2023-05-03T03:35:19;7.40;99.90
22130;DHT22;11231;50.746;4.272;2023-05-03T03:37:46;7.40;99.90
22130;DHT22;11231;50.746;4.272;2023-05-03T03:40:12;7.50;99.90
22130;DHT22;11231;50.746;4.272;2023-05-03T03:42:38;7.50;99.90
22130;DHT22;11231;50.746;4.272;2023-05-03T03:45:05;7.50;99.90
22130;DHT22;11231;50.746;4.272;2023-05-03T03:47:31;7.40;99.90
22130;DHT22;11231;50.746;4.272;2023-05-03T03:49:59;7.40;99.90
22130;DHT22;11231;50.746;4.272;2023-05-03T03:52:27;7.40;99.90
22130;DHT22;11231;50.746;4.272;2023-05-03T03:54:53;7.50;99.90
22130;DHT22;11231;50.746;4.272;2023-05-03T03:57:19;7.40;99.90
22130;DHT22;11231;50.746;4.272;2023-05-03T03:59:45;7.30;99.90
22130;DHT22;11231;50.746;4.272;2023-05-03T04:02:11;7.20;99.90
22130;DHT22;11231;50.746;4.272;2023-05-03T04:04:37;7.20;99.90
22130;DHT22;11231;50.746;4.272;2023-05-03T04:07:02;7.20;99.90
22130;DHT22;11231;50.746;4.272;2023-05-03T04:09:29;7.20;99.90
22130;DHT22;11231;50.746;4.272;2023-05-03T04:11:55;7.10;99.90
22130;DHT22;11231;50.746;4.272;2023-05-03T04:14:21;7.10;99.90
22130;DHT22;11231;50.746;4.272;2023-05-03T04:16:46;7.10;99.90
22130;DHT22;11231;50.746;4.272;2023-05-03T04:19:12;7.20;99.90
22130;DHT22;11231;50.746;4.272;2023-05-03T04:21:40;7.20;99.90
22130;DHT22;11231;50.746;4.272;2023-05-03T04:24:06;7.30;99.90
22130;DHT22;11231;50.746;4.272;2023-05-03T04:26:32;7.40;99.90
22130;DHT22;11231;50.746;4.272;2023-05-03T04:29:08;7.40;99.90
22130;DHT22;11231;50.746;4.272;2023-05-03T04:31:36;7.50;99.90
22130;DHT22;11231;50.746;4.272;2023-05-03T04:34:02;7.60;99.90
22130;DHT22;11231;50.746;4.272;2023-05-03T04:36:28;7.60;99.90
22130;DHT22;11231;50.746;4.272;2023-05-03T04:38:56;7.80;99.90
22130;DHT22;11231;50.746;4.272;2023-05-03T04:41:23;8.10;99.90
22130;DHT22;11231;50.746;4.272;2023-05-03T04:43:50;8.60;99.90
22130;DHT22;11231;50.746;4.272;2023-05-03T04:46:17;9.10;99.90
22130;DHT22;11231;50.746;4.272;2023-05-03T04:48:44;9.60;99.90
22130;DHT22;11231;50.746;4.272;2023-05-03T04:51:10;10.20;99.90
22130;DHT22;11231;50.746;4.272;2023-05-03T04:53:37;10.70;99.90
22130;DHT22;11231;50.746;4.272;2023-05-03T04:56:10;11.20;99.90
22130;DHT22;11231;50.746;4.272;2023-05-03T04:58:39;11.70;99.90
22130;DHT22;11231;50.746;4.272;2023-05-03T05:01:06;12.30;99.90
22130;DHT22;11231;50.746;4.272;2023-05-03T05:03:32;12.80;99.90
22130;DHT22;11231;50.746;4.272;2023-05-03T05:06:02;12.90;99.90
22130;DHT22;11231;50.746;4.272;2023-05-03T05:08:30;13.10;99.90
22130;DHT22;11231;50.746;4.272;2023-05-03T05:10:57;13.60;99.90
22130;DHT22;11231;50.746;4.272;2023-05-03T05:13:28;13.60;99.90
22130;DHT22;11231;50.746;4.272;2023-05-03T05:15:54;13.20;99.90
22130;DHT22;11231;50.746;4.272;2023-05-03T05:18:20;13.70;99.90
22130;DHT22;11231;50.746;4.272;2023-05-03T05:20:47;14.10;99.90
22130;DHT22;11231;50.746;4.272;2023-05-03T05:23:14;14.60;99.90
22130;DHT22;11231;50.746;4.272;2023-05-03T05:25:42;14.60;99.90
22130;DHT22;11231;50.746;4.272;2023-05-03T05:28:11;15.00;99.90
22130;DHT22;11231;50.746;4.272;2023-05-03T05:30:38;15.30;99.90
22130;DHT22;11231;50.746;4.272;2023-05-03T05:33:03;16.10;99.90
22130;DHT22;11231;50.746;4.272;2023-05-03T05:35:30;16.70;99.90
22130;DHT22;11231;50.746;4.272;2023-05-03T05:37:56;16.60;99.90
22130;DHT22;11231;50.746;4.272;2023-05-03T05:40:23;16.80;99.90
22130;DHT22;11231;50.746;4.272;2023-05-03T05:42:53;17.20;99.90
22130;DHT22;11231;50.746;4.272;2023-05-03T05:45:21;16.80;99.90
22130;DHT22;11231;50.746;4.272;2023-05-03T05:47:49;16.50;99.90
22130;DHT22;11231;50.746;4.272;2023-05-03T05:50:16;16.10;99.90
22130;DHT22;11231;50.746;4.272;2023-05-03T05:52:42;16.60;99.90
22130;DHT22;11231;50.746;4.272;2023-05-03T05:55:09;17.10;99.90
22130;DHT22;11231;50.746;4.272;2023-05-03T05:57:38;17.70;99.90
22130;DHT22;11231;50.746;4.272;2023-05-03T06:00:06;16.80;99.90
22130;DHT22;11231;50.746;4.272;2023-05-03T06:02:43;16.00;99.90
22130;DHT22;11231;50.746;4.272;2023-05-03T06:05:13;15.90;99.90
22130;DHT22;11231;50.746;4.272;2023-05-03T06:07:39;16.00;99.90
22130;DHT22;11231;50.746;4.272;2023-05-03T06:10:05;16.20;99.90
22130;DHT22;11231;50.746;4.272;2023-05-03T06:12:33;16.30;99.90
22130;DHT22;11231;50.746;4.272;2023-05-03T06:14:59;16.80;99.90
22130;DHT22;11231;50.746;4.272;2023-05-03T06:17:25;17.50;99.90
22130;DHT22;11231;50.746;4.272;2023-05-03T06:19:51;17.70;99.90
22130;DHT22;11231;50.746;4.272;2023-05-03T06:22:18;17.70;99.90
22130;DHT22;11231;50.746;4.272;2023-05-03T06:24:44;18.00;99.90
22130;DHT22;11231;50.746;4.272;2023-05-03T06:27:10;18.20;99.90
22130;DHT22;11231;50.746;4.272;2023-05-03T06:29:36;18.40;99.90
22130;DHT22;11231;50.746;4.272;2023-05-03T06:32:04;18.40;99.90
22130;DHT22;11231;50.746;4.272;2023-05-03T06:34:31;18.70;99.90
22130;DHT22;11231;50.746;4.272;2023-05-03T06:36:57;19.00;99.90
22130;DHT22;11231;50.746;4.272;2023-05-03T06:39:23;19.20;99.90
22130;DHT22;11231;50.746;4.272;2023-05-03T06:41:49;19.00;99.90
22130;DHT22;11231;50.746;4.272;2023-05-03T06:44:16;18.70;99.90
22130;DHT22;11231;50.746;4.272;2023-05-03T06:46:45;18.70;99.90
22130;DHT22;11231;50.746;4.272;2023-05-03T06:49:10;19.20;99.90
22130;DHT22;11231;50.746;4.272;2023-05-03T06:51:36;19.90;99.90
22130;DHT22;11231;50.746;4.272;2023-05-03T06:54:02;20.50;99.90
22130;DHT22;11231;50.746;4.272;2023-05-03T06:56:35;21.10;99.90
22130;DHT22;11231;50.746;4.272;2023-05-03T06:59:01;21.50;99.90
22130;DHT22;11231;50.746;4.272;2023-05-03T07:01:28;21.70;98.70
22130;DHT22;11231;50.746;4.272;2023-05-03T07:03:54;21.50;97.70
22130;DHT22;11231;50.746;4.272;2023-05-03T07:06:20;21.30;97.00
22130;DHT22;11231;50.746;4.272;2023-05-03T07:08:51;21.40;97.00
22130;DHT22;11231;50.746;4.272;2023-05-03T07:11:19;21.80;95.30
22130;DHT22;11231;50.746;4.272;2023-05-03T07:13:52;20.70;95.20
22130;DHT22;11231;50.746;4.272;2023-05-03T07:16:18;20.70;96.20
22130;DHT22;11231;50.746;4.272;2023-05-03T07:18:45;20.20;96.20
22130;DHT22;11231;50.746;4.272;2023-05-03T07:21:12;19.80;97.10
22130;DHT22;11231;50.746;4.272;2023-05-03T07:23:38;20.40;96.80
22130;DHT22;11231;50.746;4.272;2023-05-03T07:26:04;21.60;95.40
22130;DHT22;11231;50.746;4.272;2023-05-03T07:28:30;22.30;94.90
22130;DHT22;11231;50.746;4.272;2023-05-03T07:30:55;22.20;93.30
22130;DHT22;11231;50.746;4.272;2023-05-03T07:33:21;22.50;93.40
22130;DHT22;11231;50.746;4.272;2023-05-03T07:35:47;22.90;91.10
22130;DHT22;11231;50.746;4.272;2023-05-03T07:38:13;23.20;91.80
22130;DHT22;11231;50.746;4.272;2023-05-03T07:40:40;22.20;91.00
22130;DHT22;11231;50.746;4.272;2023-05-03T07:43:06;22.20;90.90
22130;DHT22;11231;50.746;4.272;2023-05-03T07:45:37;22.20;91.90
22130;DHT22;11231;50.746;4.272;2023-05-03T07:48:04;22.00;90.90
22130;DHT22;11231;50.746;4.272;2023-05-03T07:50:31;21.80;91.00
22130;DHT22;11231;50.746;4.272;2023-05-03T07:52:57;21.50;91.60
22130;DHT22;11231;50.746;4.272;2023-05-03T07:55:23;22.10;90.70
22130;DHT22;11231;50.746;4.272;2023-05-03T07:57:49;22.50;90.80
22130;DHT22;11231;50.746;4.272;2023-05-03T08:00:16;22.40;88.40
22130;DHT22;11231;50.746;4.272;2023-05-03T08:02:42;21.30;90.50
22130;DHT22;11231;50.746;4.272;2023-05-03T08:05:09;21.80;91.60
22130;DHT22;11231;50.746;4.272;2023-05-03T08:07:38;23.60;90.10
22130;DHT22;11231;50.746;4.272;2023-05-03T08:10:05;23.00;85.60
22130;DHT22;11231;50.746;4.272;2023-05-03T08:12:31;23.10;87.80
22130;DHT22;11231;50.746;4.272;2023-05-03T08:14:57;22.90;87.20
22130;DHT22;11231;50.746;4.272;2023-05-03T08:17:23;23.60;85.30
22130;DHT22;11231;50.746;4.272;2023-05-03T08:19:49;23.70;82.30
22130;DHT22;11231;50.746;4.272;2023-05-03T08:22:15;23.30;82.10
22130;DHT22;11231;50.746;4.272;2023-05-03T08:24:41;24.20;83.50
22130;DHT22;11231;50.746;4.272;2023-05-03T08:27:08;25.20;79.40
22130;DHT22;11231;50.746;4.272;2023-05-03T08:29:37;24.80;76.90
22130;DHT22;11231;50.746;4.272;2023-05-03T08:32:03;24.40;75.90
22130;DHT22;11231;50.746;4.272;2023-05-03T08:34:30;23.50;76.00
22130;DHT22;11231;50.746;4.272;2023-05-03T08:36:56;23.90;76.10
22130;DHT22;11231;50.746;4.272;2023-05-03T08:39:23;24.30;77.40
22130;DHT22;11231;50.746;4.272;2023-05-03T08:41:53;24.60;73.20
22130;DHT22;11231;50.746;4.272;2023-05-03T08:44:20;23.60;73.60
22130;DHT22;11231;50.746;4.272;2023-05-03T08:46:53;23.60;76.00
22130;DHT22;11231;50.746;4.272;2023-05-03T08:49:20;23.20;75.10
22130;DHT22;11231;50.746;4.272;2023-05-03T08:51:47;22.10;77.00
22130;DHT22;11231;50.746;4.272;2023-05-03T08:54:17;22.00;76.00
22130;DHT22;11231;50.746;4.272;2023-05-03T08:56:45;22.10;77.30
22130;DHT22;11231;50.746;4.272;2023-05-03T08:59:12;22.10;77.90
22130;DHT22;11231;50.746;4.272;2023-05-03T09:01:41;22.50;79.90
22130;DHT22;11231;50.746;4.272;2023-05-03T09:04:09;23.20;74.70
22130;DHT22;11231;50.746;4.272;2023-05-03T09:06:36;21.90;75.80
22130;DHT22;11231;50.746;4.272;2023-05-03T09:09:04;21.80;75.30
22130;DHT22;11231;50.746;4.272;2023-05-03T09:11:33;21.80;77.30
22130;DHT22;11231;50.746;4.272;2023-05-03T09:14:16;23.10;76.20
22130;DHT22;11231;50.746;4.272;2023-05-03T09:16:43;23.40;71.80
22130;DHT22;11231;50.746;4.272;2023-05-03T09:19:13;23.50;73.90
22130;DHT22;11231;50.746;4.272;2023-05-03T09:21:40;23.90;70.70
22130;DHT22;11231;50.746;4.272;2023-05-03T09:24:13;23.90;70.70
22130;DHT22;11231;50.746;4.272;2023-05-03T09:26:40;23.80;72.30
22130;DHT22;11231;50.746;4.272;2023-05-03T09:29:07;23.90;70.50
22130;DHT22;11231;50.746;4.272;2023-05-03T09:31:35;24.80;70.40
22130;DHT22;11231;50.746;4.272;2023-05-03T09:34:20;24.60;69.30
22130;DHT22;11231;50.746;4.272;2023-05-03T09:36:47;24.60;68.50
22130;DHT22;11231;50.746;4.272;2023-05-03T09:39:17;24.70;68.10
22130;DHT22;11231;50.746;4.272;2023-05-03T09:41:43;24.60;67.00
22130;DHT22;11231;50.746;4.272;2023-05-03T09:44:08;24.40;68.00
22130;DHT22;11231;50.746;4.272;2023-05-03T09:46:35;24.10;70.00
22130;DHT22;11231;50.746;4.272;2023-05-03T09:49:02;24.60;68.30
22130;DHT22;11231;50.746;4.272;2023-05-03T09:51:29;24.60;67.70
22130;DHT22;11231;50.746;4.272;2023-05-03T09:53:57;24.50;67.60
22130;DHT22;11231;50.746;4.272;2023-05-03T09:56:24;24.30;65.50
22130;DHT22;11231;50.746;4.272;2023-05-03T09:58:53;24.10;68.30
22130;DHT22;11231;50.746;4.272;2023-05-03T10:01:19;23.80;66.30
22130;DHT22;11231;50.746;4.272;2023-05-03T10:03:49;24.10;67.90
22130;DHT22;11231;50.746;4.272;2023-05-03T10:09:12;23.00;69.30
22130;DHT22;11231;50.746;4.272;2023-05-03T10:11:55;23.80;69.60
22130;DHT22;11231;50.746;4.272;2023-05-03T10:14:23;23.20;66.20
22130;DHT22;11231;50.746;4.272;2023-05-03T10:16:51;22.50;70.60
22130;DHT22;11231;50.746;4.272;2023-05-03T10:19:33;22.40;70.50
22130;DHT22;11231;50.746;4.272;2023-05-03T10:22:08;22.50;70.30
22130;DHT22;11231;50.746;4.272;2023-05-03T10:24:35;22.90;71.10
22130;DHT22;11231;50.746;4.272;2023-05-03T10:27:01;23.00;70.80
22130;DHT22;11231;50.746;4.272;2023-05-03T10:32:00;22.90;70.60
22130;DHT22;11231;50.746;4.272;2023-05-03T10:34:33;23.50;71.20
22130;DHT22;11231;50.746;4.272;2023-05-03T10:37:06;23.70;69.30
22130;DHT22;11231;50.746;4.272;2023-05-03T10:39:32;24.40;69.00
22130;DHT22;11231;50.746;4.272;2023-05-03T10:42:01;24.10;71.20
22130;DHT22;11231;50.746;4.272;2023-05-03T10:44:37;24.10;66.90
22130;DHT22;11231;50.746;4.272;2023-05-03T10:47:16;24.60;67.00
22130;DHT22;11231;50.746;4.272;2023-05-03T10:49:44;24.10;64.40
22130;DHT22;11231;50.746;4.272;2023-05-03T10:55:01;24.90;63.70
22130;DHT22;11231;50.746;4.272;2023-05-03T10:57:30;24.90;64.80
22130;DHT22;11231;50.746;4.272;2023-05-03T10:59:58;24.80;63.70
22130;DHT22;11231;50.746;4.272;2023-05-03T11:02:31;25.00;63.20
22130;DHT22;11231;50.746;4.272;2023-05-03T11:05:01;24.10;61.90
22130;DHT22;11231;50.746;4.272;2023-05-03T11:07:30;23.50;61.70
22130;DHT22;11231;50.746;4.272;2023-05-03T11:09:56;23.60;63.70
22130;DHT22;11231;50.746;4.272;2023-05-03T11:12:22;24.10;62.80
22130;DHT22;11231;50.746;4.272;2023-05-03T11:14:51;23.90;63.00
22130;DHT22;11231;50.746;4.272;2023-05-03T11:17:16;23.90;65.30
22130;DHT22;11231;50.746;4.272;2023-05-03T11:19:43;23.80;67.20
22130;DHT22;11231;50.746;4.272;2023-05-03T11:22:09;24.10;63.60
22130;DHT22;11231;50.746;4.272;2023-05-03T11:24:37;24.10;64.80
22130;DHT22;11231;50.746;4.272;2023-05-03T11:27:02;24.10;61.60
22130;DHT22;11231;50.746;4.272;2023-05-03T11:29:29;24.30;61.70
22130;DHT22;11231;50.746;4.272;2023-05-03T11:31:56;24.30;63.00
22130;DHT22;11231;50.746;4.272;2023-05-03T11:34:21;24.60;61.40
22130;DHT22;11231;50.746;4.272;2023-05-03T11:36:48;25.00;60.70
22130;DHT22;11231;50.746;4.272;2023-05-03T11:39:14;24.10;59.60
22130;DHT22;11231;50.746;4.272;2023-05-03T11:41:40;24.00;61.50
22130;DHT22;11231;50.746;4.272;2023-05-03T11:44:08;23.90;60.00
22130;DHT22;11231;50.746;4.272;2023-05-03T11:46:35;23.20;62.70
22130;DHT22;11231;50.746;4.272;2023-05-03T11:49:02;23.30;62.50
22130;DHT22;11231;50.746;4.272;2023-05-03T11:51:28;23.60;63.90
22130;DHT22;11231;50.746;4.272;2023-05-03T11:53:54;22.70;65.20
22130;DHT22;11231;50.746;4.272;2023-05-03T11:56:21;23.20;66.70
22130;DHT22;11231;50.746;4.272;2023-05-03T11:58:54;23.60;66.70
22130;DHT22;11231;50.746;4.272;2023-05-03T12:01:24;23.50;66.20
22130;DHT22;11231;50.746;4.272;2023-05-03T12:03:58;23.30;66.20
22130;DHT22;11231;50.746;4.272;2023-05-03T12:06:25;23.10;66.60
22130;DHT22;11231;50.746;4.272;2023-05-03T12:08:53;23.10;68.10
22130;DHT22;11231;50.746;4.272;2023-05-03T12:11:19;23.30;67.80
22130;DHT22;11231;50.746;4.272;2023-05-03T12:13:55;22.80;65.30
22130;DHT22;11231;50.746;4.272;2023-05-03T12:16:22;22.50;66.70
22130;DHT22;11231;50.746;4.272;2023-05-03T12:18:56;22.20;67.60
22130;DHT22;11231;50.746;4.272;2023-05-03T12:21:45;21.80;69.20
22130;DHT22;11231;50.746;4.272;2023-05-03T12:24:12;21.00;67.90
22130;DHT22;11231;50.746;4.272;2023-05-03T12:26:43;20.70;70.70
22130;DHT22;11231;50.746;4.272;2023-05-03T12:29:09;20.20;71.30
22130;DHT22;11231;50.746;4.272;2023-05-03T12:31:34;19.90;71.80
22130;DHT22;11231;50.746;4.272;2023-05-03T12:34:01;19.70;73.40
22130;DHT22;11231;50.746;4.272;2023-05-03T12:36:31;19.50;73.20
22130;DHT22;11231;50.746;4.272;2023-05-03T12:38:58;19.60;74.50
22130;DHT22;11231;50.746;4.272;2023-05-03T12:41:24;19.20;74.10
22130;DHT22;11231;50.746;4.272;2023-05-03T12:43:52;19.00;73.70
22130;DHT22;11231;50.746;4.272;2023-05-03T12:46:18;18.90;76.10
22130;DHT22;11231;50.746;4.272;2023-05-03T12:48:44;19.20;75.10
22130;DHT22;11231;50.746;4.272;2023-05-03T12:51:10;19.10;72.40
22130;DHT22;11231;50.746;4.272;2023-05-03T12:53:36;19.00;74.90
22130;DHT22;11231;50.746;4.272;2023-05-03T12:56:02;18.90;72.80
22130;DHT22;11231;50.746;4.272;2023-05-03T12:58:28;18.70;74.40
22130;DHT22;11231;50.746;4.272;2023-05-03T13:00:53;18.70;75.10
22130;DHT22;11231;50.746;4.272;2023-05-03T13:03:19;18.70;77.70
22130;DHT22;11231;50.746;4.272;2023-05-03T13:05:45;18.90;79.30
22130;DHT22;11231;50.746;4.272;2023-05-03T13:08:11;19.00;78.30
22130;DHT22;11231;50.746;4.272;2023-05-03T13:10:37;18.90;77.10
22130;DHT22;11231;50.746;4.272;2023-05-03T13:13:05;18.90;76.50
22130;DHT22;11231;50.746;4.272;2023-05-03T13:15:33;18.80;76.90
22130;DHT22;11231;50.746;4.272;2023-05-03T13:18:00;18.90;78.10
22130;DHT22;11231;50.746;4.272;2023-05-03T13:20:26;18.90;76.10
22130;DHT22;11231;50.746;4.272;2023-05-03T13:22:52;19.00;77.20
22130;DHT22;11231;50.746;4.272;2023-05-03T13:25:18;19.00;75.90
22130;DHT22;11231;50.746;4.272;2023-05-03T13:27:43;18.80;77.10
22130;DHT22;11231;50.746;4.272;2023-05-03T13:30:11;18.70;75.80
22130;DHT22;11231;50.746;4.272;2023-05-03T13:32:39;18.60;77.00
22130;DHT22;11231;50.746;4.272;2023-05-03T13:35:05;18.70;76.60
22130;DHT22;11231;50.746;4.272;2023-05-03T13:37:32;18.70;77.40
22130;DHT22;11231;50.746;4.272;2023-05-03T13:39:58;18.70;78.30
22130;DHT22;11231;50.746;4.272;2023-05-03T13:42:23;18.50;79.20
22130;DHT22;11231;50.746;4.272;2023-05-03T13:44:49;18.40;80.80
22130;DHT22;11231;50.746;4.272;2023-05-03T13:47:15;18.40;78.80
22130;DHT22;11231;50.746;4.272;2023-05-03T13:49:41;18.30;79.50
22130;DHT22;11231;50.746;4.272;2023-05-03T13:52:07;18.30;80.90
22130;DHT22;11231;50.746;4.272;2023-05-03T13:54:34;18.40;81.40
22130;DHT22;11231;50.746;4.272;2023-05-03T13:57:00;18.60;79.70
22130;DHT22;11231;50.746;4.272;2023-05-03T13:59:26;18.60;80.90
22130;DHT22;11231;50.746;4.272;2023-05-03T14:01:52;18.70;81.80
22130;DHT22;11231;50.746;4.272;2023-05-03T14:04:18;18.50;80.10
22130;DHT22;11231;50.746;4.272;2023-05-03T14:06:44;18.30;79.50
22130;DHT22;11231;50.746;4.272;2023-05-03T14:09:10;18.20;78.30
22130;DHT22;11231;50.746;4.272;2023-05-03T14:11:37;18.20;79.80
22130;DHT22;11231;50.746;4.272;2023-05-03T14:14:03;18.30;82.10
22130;DHT22;11231;50.746;4.272;2023-05-03T14:16:29;18.40;81.50
22130;DHT22;11231;50.746;4.272;2023-05-03T14:18:55;18.40;79.90
22130;DHT22;11231;50.746;4.272;2023-05-03T14:21:20;18.40;77.80
22130;DHT22;11231;50.746;4.272;2023-05-03T14:23:47;18.30;79.80
22130;DHT22;11231;50.746;4.272;2023-05-03T14:26:17;18.30;79.70
22130;DHT22;11231;50.746;4.272;2023-05-03T14:28:43;18.40;78.50
22130;DHT22;11231;50.746;4.272;2023-05-03T14:31:09;18.40;79.00
22130;DHT22;11231;50.746;4.272;2023-05-03T14:33:35;18.40;79.90
22130;DHT22;11231;50.746;4.272;2023-05-03T14:36:02;18.40;81.30
22130;DHT22;11231;50.746;4.272;2023-05-03T14:38:28;18.60;81.20
22130;DHT22;11231;50.746;4.272;2023-05-03T14:40:54;18.60;82.50
22130;DHT22;11231;50.746;4.272;2023-05-03T14:43:21;18.60;78.80
22130;DHT22;11231;50.746;4.272;2023-05-03T14:45:47;18.50;78.30
22130;DHT22;11231;50.746;4.272;2023-05-03T14:48:13;18.50;76.70
22130;DHT22;11231;50.746;4.272;2023-05-03T14:50:40;18.50;75.70
22130;DHT22;11231;50.746;4.272;2023-05-03T14:53:06;18.50;78.30
22130;DHT22;11231;50.746;4.272;2023-05-03T14:55:31;18.60;80.30
22130;DHT22;11231;50.746;4.272;2023-05-03T14:57:58;18.60;78.60
22130;DHT22;11231;50.746;4.272;2023-05-03T15:00:23;18.70;79.70
22130;DHT22;11231;50.746;4.272;2023-05-03T15:02:53;18.60;79.30
22130;DHT22;11231;50.746;4.272;2023-05-03T15:05:21;18.70;79.70
22130;DHT22;11231;50.746;4.272;2023-05-03T15:07:47;18.60;79.20
22130;DHT22;11231;50.746;4.272;2023-05-03T15:10:14;18.70;77.20
22130;DHT22;11231;50.746;4.272;2023-05-03T15:12:39;18.60;74.80
22130;DHT22;11231;50.746;4.272;2023-05-03T15:15:07;18.60;75.80
22130;DHT22;11231;50.746;4.272;2023-05-03T15:17:34;18.70;79.30
22130;DHT22;11231;50.746;4.272;2023-05-03T15:20:00;18.60;77.90
22130;DHT22;11231;50.746;4.272;2023-05-03T15:22:26;18.60;79.00
22130;DHT22;11231;50.746;4.272;2023-05-03T15:24:52;18.60;77.60
22130;DHT22;11231;50.746;4.272;2023-05-03T15:27:18;18.60;78.20
22130;DHT22;11231;50.746;4.272;2023-05-03T15:29:43;18.70;79.80
22130;DHT22;11231;50.746;4.272;2023-05-03T15:32:09;18.60;80.60
22130;DHT22;11231;50.746;4.272;2023-05-03T15:34:35;18.70;79.70
22130;DHT22;11231;50.746;4.272;2023-05-03T15:37:01;18.70;77.90
22130;DHT22;11231;50.746;4.272;2023-05-03T15:39:27;18.80;80.90
22130;DHT22;11231;50.746;4.272;2023-05-03T15:41:53;18.80;80.70
22130;DHT22;11231;50.746;4.272;2023-05-03T15:44:19;18.70;76.50
22130;DHT22;11231;50.746;4.272;2023-05-03T15:46:45;18.70;77.60
22130;DHT22;11231;50.746;4.272;2023-05-03T15:49:10;18.60;78.70
22130;DHT22;11231;50.746;4.272;2023-05-03T15:51:37;18.40;78.80
22130;DHT22;11231;50.746;4.272;2023-05-03T15:54:04;18.40;80.90